Time;durP1;ratioP1;P1;durP2;ratioP2;P2;SDS_P1;SDS_P2;PMS_P1;PMS_P2;Temp;Humidity;BMP_temperature;BMP_pressure;BME280_temperature;BME280_humidity;BME280_pressure;Samples;Min_cycle;Max_cycle;Signal;HPM_P1;HPM_P2
2023/10/31 00:02:16;;;;;;;0.00;0.00;;;21.90;53.10;;;;;;5074210;28;20195;-53
2023/10/31 00:04:49;;;;;;;0.10;0.10;;;21.90;53.20;;;;;;5090857;28;20281;-49
2023/10/31 00:07:20;;;;;;;0.10;0.10;;;22.00;53.20;;;;;;5094147;28;20201;-51
2023/10/31 00:09:52;;;;;;;0.10;0.10;;;22.00;53.20;;;;;;5091001;28;20577;-54
2023/10/31 00:12:23;;;;;;;0.10;0.10;;;22.00;53.30;;;;;;5093926;28;20194;-52
2023/10/31 00:14:54;;;;;;;0.10;0.10;;;22.00;53.40;;;;;;5094446;28;20249;-53
2023/10/31 00:17:24;;;;;;;0.10;0.10;;;22.10;53.50;;;;;;5083721;28;20195;-50
2023/10/31 00:19:56;;;;;;;0.10;0.10;;;22.10;53.50;;;;;;5073987;28;20195;-46
2023/10/31 00:22:27;;;;;;;0.03;0.03;;;22.10;53.50;;;;;;5074220;28;20195;-45
2023/10/31 00:24:59;;;;;;;0.10;0.10;;;22.20;53.50;;;;;;5074111;28;20203;-47
2023/10/31 00:27:30;;;;;;;0.10;0.10;;;22.20;53.30;;;;;;5054010;22;20317;-57
2023/10/31 00:30:01;;;;;;;0.10;0.10;;;22.20;53.30;;;;;;5014743;28;20232;-57
2023/10/31 00:32:31;;;;;;;0.00;0.00;;;22.20;53.30;;;;;;5014683;28;20209;-57
2023/10/31 00:35:02;;;;;;;0.10;0.10;;;22.30;53.30;;;;;;5014358;28;20696;-57
2023/10/31 00:37:33;;;;;;;0.10;0.10;;;22.30;53.30;;;;;;5014437;28;20217;-56
2023/10/31 00:40:05;;;;;;;0.00;0.00;;;22.40;53.40;;;;;;5014383;28;20197;-58
2023/10/31 00:42:36;;;;;;;0.10;0.10;;;22.40;53.40;;;;;;5014296;28;20197;-56
2023/10/31 00:45:07;;;;;;;0.10;0.10;;;22.40;53.40;;;;;;5014378;28;20399;-57
2023/10/31 00:47:38;;;;;;;0.10;0.10;;;22.40;53.40;;;;;;5025672;28;20216;-54
2023/10/31 00:50:09;;;;;;;0.10;0.10;;;22.40;53.50;;;;;;5050653;28;20188;-58
2023/10/31 00:52:40;;;;;;;0.10;0.10;;;22.50;53.50;;;;;;5053645;28;20690;-55
2023/10/31 00:55:12;;;;;;;0.10;0.10;;;22.50;53.50;;;;;;5053647;28;20253;-57
2023/10/31 00:57:43;;;;;;;0.00;0.00;;;22.50;53.50;;;;;;5053296;28;20219;-58
2023/10/31 01:00:14;;;;;;;0.00;0.00;;;22.50;53.70;;;;;;5053440;28;20196;-57
2023/10/31 01:02:45;;;;;;;0.00;0.00;;;22.50;53.80;;;;;;5053306;28;20195;-57
2023/10/31 01:05:15;;;;;;;0.00;0.00;;;22.60;53.70;;;;;;5053427;28;20207;-57
2023/10/31 01:07:46;;;;;;;0.10;0.10;;;22.60;53.50;;;;;;5053026;28;20306;-57
2023/10/31 01:10:18;;;;;;;0.10;0.10;;;22.60;53.50;;;;;;5053157;28;20207;-57
2023/10/31 01:12:49;;;;;;;0.05;0.05;;;22.60;53.60;;;;;;5053056;28;20203;-57
2023/10/31 01:15:20;;;;;;;0.10;0.10;;;22.70;53.50;;;;;;5053146;28;20227;-58
2023/10/31 01:17:50;;;;;;;0.10;0.10;;;22.70;53.30;;;;;;5039372;28;20597;-60
2023/10/31 01:20:21;;;;;;;0.10;0.10;;;22.80;53.30;;;;;;5033440;28;20660;-58
2023/10/31 01:22:52;;;;;;;0.10;0.10;;;22.80;53.30;;;;;;5032857;28;20274;-57
2023/10/31 01:25:24;;;;;;;0.10;0.10;;;22.80;53.30;;;;;;5031349;28;20602;-57
2023/10/31 01:27:55;;;;;;;0.10;0.10;;;22.90;53.30;;;;;;5055013;23;20728;-47
2023/10/31 01:30:26;;;;;;;0.10;0.10;;;22.90;53.40;;;;;;5053023;28;20200;-46
2023/10/31 01:32:56;;;;;;;0.10;0.10;;;22.90;53.40;;;;;;5052599;28;20210;-47
2023/10/31 01:35:27;;;;;;;0.10;0.10;;;22.90;53.50;;;;;;5052667;28;20219;-48
2023/10/31 01:37:57;;;;;;;0.05;0.05;;;22.90;53.50;;;;;;5052574;28;20215;-48
2023/10/31 01:40:30;;;;;;;0.00;0.00;;;23.00;53.50;;;;;;5052621;28;20573;-46
2023/10/31 01:43:01;;;;;;;0.08;0.08;;;23.00;53.70;;;;;;5052586;28;20195;-46
2023/10/31 01:45:31;;;;;;;0.10;0.10;;;23.00;53.60;;;;;;5052523;28;20199;-49
2023/10/31 01:48:02;;;;;;;0.00;0.00;;;23.00;53.50;;;;;;5052030;28;20223;-49
2023/10/31 01:50:33;;;;;;;0.00;0.00;;;23.10;53.50;;;;;;5052362;28;20198;-46
2023/10/31 01:53:03;;;;;;;0.10;0.10;;;23.10;53.40;;;;;;5052294;28;20206;-49
2023/10/31 01:55:36;;;;;;;0.10;0.10;;;23.10;53.40;;;;;;5052066;28;20229;-48
2023/10/31 01:58:07;;;;;;;0.10;0.10;;;23.10;53.30;;;;;;5051918;28;20698;-46
2023/10/31 02:00:38;;;;;;;0.10;0.10;;;23.10;53.30;;;;;;5052015;28;20234;-47
2023/10/31 02:03:09;;;;;;;0.00;0.00;;;23.20;53.30;;;;;;5052519;28;20199;-46
2023/10/31 02:05:40;;;;;;;0.00;0.00;;;23.20;53.20;;;;;;5052054;28;20207;-51
2023/10/31 02:08:11;;;;;;;0.00;0.00;;;23.30;53.20;;;;;;5051741;28;20230;-48
2023/10/31 02:10:43;;;;;;;0.10;0.10;;;23.30;53.30;;;;;;5052186;28;20210;-49
2023/10/31 02:13:18;;;;;;;0.00;0.00;;;23.30;53.30;;;;;;5052198;28;20196;-49
2023/10/31 02:15:49;;;;;;;0.10;0.10;;;23.30;53.20;;;;;;5052100;28;20230;-51
2023/10/31 02:18:20;;;;;;;0.00;0.00;;;23.40;53.20;;;;;;5051993;28;20223;-50
2023/10/31 02:20:52;;;;;;;0.08;0.08;;;23.40;53.20;;;;;;5050885;28;20195;-49
2023/10/31 02:23:27;;;;;;;0.00;0.00;;;23.40;53.20;;;;;;5052094;28;20278;-50
2023/10/31 02:25:58;;;;;;;0.00;0.00;;;23.40;53.20;;;;;;5052429;28;20211;-49
2023/10/31 02:28:29;;;;;;;0.00;0.00;;;23.50;53.20;;;;;;5051347;28;20222;-50
2023/10/31 02:30:59;;;;;;;0.00;0.00;;;23.50;53.20;;;;;;5051782;28;20567;-53
2023/10/31 02:33:30;;;;;;;0.00;0.00;;;23.50;53.00;;;;;;5051655;28;20573;-48
2023/10/31 02:36:01;;;;;;;0.05;0.05;;;23.50;52.80;;;;;;5051772;28;20230;-48
2023/10/31 02:38:33;;;;;;;0.00;0.00;;;23.60;52.80;;;;;;5051638;28;20276;-50
2023/10/31 02:41:04;;;;;;;0.00;0.00;;;23.60;52.80;;;;;;5051574;28;20195;-52
2023/10/31 02:43:34;;;;;;;0.00;0.00;;;23.60;52.70;;;;;;5051337;28;20254;-51
2023/10/31 02:46:05;;;;;;;0.10;0.10;;;23.60;52.70;;;;;;5051470;28;20211;-52
2023/10/31 02:48:39;;;;;;;0.03;0.03;;;23.70;52.60;;;;;;5042452;28;20214;-50
2023/10/31 02:51:10;;;;;;;0.10;0.10;;;23.70;52.60;;;;;;5071602;28;20279;-48
2023/10/31 02:53:43;;;;;;;0.10;0.10;;;23.70;52.60;;;;;;5071369;28;20190;-51
2023/10/31 02:56:13;;;;;;;0.10;0.10;;;23.80;52.60;;;;;;5071521;28;20593;-51
2023/10/31 02:58:44;;;;;;;0.03;0.03;;;23.80;52.60;;;;;;5071286;28;20705;-51
2023/10/31 03:01:15;;;;;;;0.00;0.00;;;23.80;52.50;;;;;;5071183;28;20199;-51
2023/10/31 03:03:45;;;;;;;0.00;0.00;;;23.80;52.50;;;;;;5071108;28;20203;-51
2023/10/31 03:06:16;;;;;;;0.00;0.00;;;23.80;52.50;;;;;;5071235;28;20195;-53
2023/10/31 03:08:48;;;;;;;0.00;0.00;;;23.90;52.50;;;;;;5071071;28;20222;-51
2023/10/31 03:11:28;;;;;;;0.03;0.03;;;23.90;52.50;;;;;;5071851;28;20337;-51
2023/10/31 03:13:59;;;;;;;0.00;0.00;;;23.90;52.40;;;;;;5071471;28;20600;-52
2023/10/31 03:16:30;;;;;;;0.00;0.00;;;23.90;52.40;;;;;;5068782;28;20198;-49
2023/10/31 03:19:01;;;;;;;0.10;0.10;;;24.00;52.40;;;;;;5050971;28;20224;-55
2023/10/31 03:21:31;;;;;;;0.00;0.00;;;24.00;52.30;;;;;;5051486;28;20200;-50
2023/10/31 03:24:04;;;;;;;0.03;0.03;;;24.00;52.30;;;;;;5051330;28;20242;-52
2023/10/31 03:26:34;;;;;;;0.10;0.10;;;24.00;52.30;;;;;;5051700;28;20215;-53
2023/10/31 03:29:05;;;;;;;0.10;0.10;;;24.10;52.30;;;;;;5051378;28;20222;-53
2023/10/31 03:31:36;;;;;;;0.10;0.10;;;24.10;52.20;;;;;;5051374;28;20191;-51
2023/10/31 03:34:06;;;;;;;0.00;0.00;;;24.20;52.20;;;;;;5051336;28;20199;-55
2023/10/31 03:36:37;;;;;;;0.08;0.08;;;24.20;52.20;;;;;;5051005;28;20203;-50
2023/10/31 03:39:09;;;;;;;0.00;0.00;;;24.20;52.10;;;;;;5050822;28;20219;-51
2023/10/31 03:41:42;;;;;;;0.00;0.00;;;24.20;52.10;;;;;;5050812;28;20192;-51
2023/10/31 03:44:12;;;;;;;0.05;0.05;;;24.30;52.00;;;;;;5050796;28;20245;-48
2023/10/31 03:46:43;;;;;;;0.03;0.03;;;24.30;52.00;;;;;;5051088;28;20199;-51
2023/10/31 03:49:14;;;;;;;0.05;0.05;;;24.30;52.00;;;;;;5054010;28;20219;-50
2023/10/31 03:51:44;;;;;;;0.00;0.00;;;24.30;52.00;;;;;;5057577;28;20210;-49
2023/10/31 03:54:17;;;;;;;0.00;0.00;;;24.40;52.00;;;;;;5057561;28;20556;-52
2023/10/31 03:56:48;;;;;;;0.00;0.00;;;24.40;51.90;;;;;;5055121;28;20602;-50
2023/10/31 03:59:19;;;;;;;0.00;0.00;;;24.50;52.00;;;;;;5054411;28;20208;-50
2023/10/31 04:01:49;;;;;;;0.00;0.00;;;24.50;51.90;;;;;;5054441;28;20196;-50
2023/10/31 04:04:20;;;;;;;0.10;0.10;;;24.50;51.80;;;;;;5054462;28;20191;-49
2023/10/31 04:06:51;;;;;;;0.00;0.00;;;24.50;51.80;;;;;;5054479;28;20192;-51
2023/10/31 04:09:23;;;;;;;0.10;0.10;;;24.50;51.80;;;;;;5054207;28;20224;-51
2023/10/31 04:11:54;;;;;;;0.10;0.10;;;24.60;51.70;;;;;;5054202;28;20192;-46
2023/10/31 04:14:25;;;;;;;0.00;0.00;;;24.60;51.60;;;;;;5053893;28;20195;-50
2023/10/31 04:16:55;;;;;;;0.00;0.00;;;24.60;51.50;;;;;;5040534;28;20687;-48
2023/10/31 04:19:26;;;;;;;0.10;0.10;;;24.60;51.40;;;;;;5054030;28;20226;-52
2023/10/31 04:21:57;;;;;;;0.05;0.05;;;24.60;51.40;;;;;;5054195;28;20534;-51
2023/10/31 04:24:30;;;;;;;0.10;0.10;;;24.70;51.40;;;;;;5054275;28;20206;-51
2023/10/31 04:27:00;;;;;;;0.00;0.00;;;24.70;51.30;;;;;;5071006;22;20219;-53
2023/10/31 04:29:31;;;;;;;0.00;0.00;;;24.70;51.30;;;;;;5053916;28;20261;-57
2023/10/31 04:32:01;;;;;;;0.10;0.10;;;24.70;51.20;;;;;;5054037;28;20196;-59
2023/10/31 04:34:32;;;;;;;0.00;0.00;;;24.80;51.20;;;;;;5053990;28;20199;-60
2023/10/31 04:37:03;;;;;;;0.00;0.00;;;24.70;51.10;;;;;;5053775;28;20195;-59
2023/10/31 04:39:35;;;;;;;0.00;0.00;;;24.80;51.10;;;;;;5053931;28;20202;-59
2023/10/31 04:42:06;;;;;;;0.10;0.10;;;24.80;51.10;;;;;;5053651;28;20203;-60
2023/10/31 04:44:36;;;;;;;0.00;0.00;;;24.90;51.10;;;;;;5053678;28;20584;-59
2023/10/31 04:47:08;;;;;;;0.00;0.00;;;24.80;51.00;;;;;;5053875;28;20195;-60
2023/10/31 04:49:39;;;;;;;0.00;0.00;;;24.90;51.10;;;;;;5053576;28;20203;-57
2023/10/31 04:52:10;;;;;;;0.00;0.00;;;24.90;51.00;;;;;;5053488;28;20195;-57
2023/10/31 04:54:43;;;;;;;0.05;0.05;;;24.90;51.00;;;;;;5053508;28;20199;-57
2023/10/31 04:57:14;;;;;;;0.10;0.10;;;24.90;50.90;;;;;;5066600;28;20202;-60
2023/10/31 04:59:44;;;;;;;0.10;0.10;;;24.90;50.90;;;;;;5072359;28;20190;-60
2023/10/31 05:02:15;;;;;;;0.00;0.00;;;24.90;50.80;;;;;;5073734;28;20647;-60
2023/10/31 05:04:46;;;;;;;0.10;0.10;;;25.00;50.90;;;;;;5073734;28;20198;-60
2023/10/31 05:07:16;;;;;;;0.00;0.00;;;25.00;50.80;;;;;;5072959;28;20285;-59
2023/10/31 05:09:49;;;;;;;0.00;0.00;;;25.00;50.80;;;;;;5073229;28;20662;-59
2023/10/31 05:12:19;;;;;;;0.00;0.00;;;25.00;50.80;;;;;;5070102;28;20191;-59
2023/10/31 05:14:50;;;;;;;0.00;0.00;;;25.00;50.80;;;;;;5052805;28;20612;-60
2023/10/31 05:17:21;;;;;;;0.10;0.10;;;25.00;50.70;;;;;;5053197;28;20206;-60
2023/10/31 05:19:51;;;;;;;0.00;0.00;;;25.10;50.80;;;;;;5053229;28;20196;-60
2023/10/31 05:22:22;;;;;;;0.00;0.00;;;25.10;50.80;;;;;;5053069;28;20222;-60
2023/10/31 05:24:54;;;;;;;0.00;0.00;;;25.10;50.70;;;;;;5053112;28;20208;-60
2023/10/31 05:27:25;;;;;;;0.00;0.00;;;25.10;50.70;;;;;;5052951;28;20259;-60
2023/10/31 05:29:56;;;;;;;0.00;0.00;;;25.10;50.70;;;;;;5053181;28;20203;-59
2023/10/31 05:32:26;;;;;;;0.00;0.00;;;25.10;50.60;;;;;;5052889;28;20600;-60
2023/10/31 05:34:57;;;;;;;0.00;0.00;;;25.10;50.60;;;;;;5052708;28;20222;-60
2023/10/31 05:37:28;;;;;;;0.00;0.00;;;25.10;50.60;;;;;;5052399;28;20224;-60
2023/10/31 05:40:01;;;;;;;0.00;0.00;;;25.10;50.70;;;;;;5052786;28;20199;-59
2023/10/31 05:42:31;;;;;;;0.00;0.00;;;25.10;50.60;;;;;;5052671;28;20227;-60
2023/10/31 05:45:02;;;;;;;0.03;0.03;;;25.10;50.60;;;;;;5055032;28;20191;-59
2023/10/31 05:47:32;;;;;;;0.00;0.00;;;25.10;50.60;;;;;;5047815;28;20307;-60
2023/10/31 05:50:03;;;;;;;0.00;0.00;;;25.10;50.60;;;;;;5032646;28;20200;-59
2023/10/31 05:52:34;;;;;;;0.05;0.05;;;25.10;50.60;;;;;;5041463;28;20218;-58
2023/10/31 05:55:07;;;;;;;0.05;0.05;;;25.10;50.60;;;;;;5052336;28;20254;-60
2023/10/31 05:57:38;;;;;;;0.00;0.00;;;25.10;50.60;;;;;;5051937;28;20219;-59
2023/10/31 06:00:09;;;;;;;0.03;0.03;;;25.20;50.60;;;;;;5051626;28;20199;-59
2023/10/31 06:02:40;;;;;;;0.00;0.00;;;25.20;50.50;;;;;;5052247;28;20200;-58
2023/10/31 06:05:11;;;;;;;0.00;0.00;;;25.20;50.50;;;;;;5052581;28;20593;-58
2023/10/31 06:07:41;;;;;;;0.00;0.00;;;25.20;50.40;;;;;;5052077;28;20226;-57
2023/10/31 06:10:14;;;;;;;0.00;0.00;;;25.20;50.40;;;;;;5051935;28;20203;-57
2023/10/31 06:12:45;;;;;;;0.10;0.10;;;25.20;50.40;;;;;;5051272;28;20196;-59
2023/10/31 06:15:16;;;;;;;0.00;0.00;;;25.10;50.30;;;;;;5051582;28;20226;-58
2023/10/31 06:17:46;;;;;;;0.10;0.10;;;25.10;50.30;;;;;;5051773;28;20223;-57
2023/10/31 06:20:17;;;;;;;0.00;0.00;;;25.10;50.30;;;;;;5052036;28;20195;-56
2023/10/31 06:22:47;;;;;;;0.00;0.00;;;25.20;50.40;;;;;;5051714;28;20192;-57
2023/10/31 06:25:20;;;;;;;0.00;0.00;;;25.10;50.30;;;;;;5050796;28;20206;-57
2023/10/31 06:27:50;;;;;;;0.00;0.00;;;25.10;50.30;;;;;;5068136;22;20231;-55
2023/10/31 06:30:21;;;;;;;0.00;0.00;;;25.10;50.30;;;;;;5051636;28;20218;-56
2023/10/31 06:33:07;;;;;;;0.00;0.00;;;25.10;50.30;;;;;;5051555;28;20203;-53
2023/10/31 06:35:38;;;;;;;0.00;0.00;;;25.10;50.30;;;;;;5051859;28;20727;-54
2023/10/31 06:38:08;;;;;;;0.00;0.00;;;25.10;50.30;;;;;;5051699;28;20466;-55
2023/10/31 06:40:41;;;;;;;0.00;0.00;;;25.10;50.20;;;;;;5051542;28;20191;-55
2023/10/31 06:43:11;;;;;;;0.00;0.00;;;25.10;50.10;;;;;;5051418;28;20658;-53
2023/10/31 06:45:42;;;;;;;0.00;0.00;;;25.10;50.70;;;;;;5051514;28;20206;-51
2023/10/31 06:48:13;;;;;;;0.00;0.00;;;25.10;50.00;;;;;;5051298;28;20718;-54
2023/10/31 06:50:43;;;;;;;0.00;0.00;;;25.10;49.90;;;;;;5051677;28;20200;-51
2023/10/31 06:53:14;;;;;;;0.00;0.00;;;25.00;49.90;;;;;;5056318;28;20749;-55
2023/10/31 06:56:05;;;;;;;0.00;0.00;;;25.10;49.90;;;;;;5071046;28;20744;-55
2023/10/31 06:58:36;;;;;;;0.10;0.10;;;25.00;49.80;;;;;;5070832;28;20234;-55
2023/10/31 07:01:07;;;;;;;0.05;0.05;;;25.00;49.80;;;;;;5071627;28;20199;-55
2023/10/31 07:03:37;;;;;;;0.00;0.00;;;25.00;49.80;;;;;;5071039;28;20209;-54
2023/10/31 07:06:07;;;;;;;0.00;0.00;;;24.90;49.70;;;;;;5070783;28;20612;-54
2023/10/31 07:08:37;;;;;;;0.00;0.00;;;24.90;50.30;;;;;;5070566;28;20219;-55
2023/10/31 07:11:10;;;;;;;0.10;0.10;;;24.90;49.80;;;;;;5071079;28;20195;-54
2023/10/31 07:13:41;;;;;;;0.03;0.03;;;24.90;50.00;;;;;;5070827;28;20199;-55
2023/10/31 07:16:12;;;;;;;0.00;0.00;;;24.90;49.70;;;;;;5071252;28;20697;-53
2023/10/31 07:18:42;;;;;;;0.00;0.00;;;24.90;49.80;;;;;;5051791;28;20212;-51
2023/10/31 07:21:13;;;;;;;0.03;0.03;;;24.90;49.80;;;;;;5035471;28;20196;-54
2023/10/31 07:23:44;;;;;;;0.00;0.00;;;24.90;49.80;;;;;;5033716;28;20204;-51
2023/10/31 07:26:16;;;;;;;0.00;0.00;;;24.80;49.70;;;;;;5034430;28;20195;-52
2023/10/31 07:28:48;;;;;;;0.05;0.05;;;24.80;49.70;;;;;;5034695;28;20216;-54
2023/10/31 07:31:19;;;;;;;0.00;0.00;;;24.80;49.60;;;;;;5035280;28;20200;-54
2023/10/31 07:33:49;;;;;;;0.00;0.00;;;24.70;49.50;;;;;;5034765;28;20561;-52
2023/10/31 07:36:20;;;;;;;0.10;0.10;;;24.70;49.50;;;;;;5034757;28;20761;-55
2023/10/31 07:38:50;;;;;;;0.10;0.10;;;24.70;49.50;;;;;;5047198;28;20219;-52
2023/10/31 07:41:23;;;;;;;0.00;0.00;;;24.70;49.50;;;;;;5054733;28;20191;-53
2023/10/31 07:43:54;;;;;;;0.00;0.00;;;24.70;49.50;;;;;;5057003;28;20188;-53
2023/10/31 07:46:25;;;;;;;0.00;0.00;;;24.60;49.40;;;;;;5054660;28;20198;-52
2023/10/31 07:48:55;;;;;;;0.10;0.10;;;24.60;49.50;;;;;;5054781;28;20219;-53
2023/10/31 07:51:26;;;;;;;0.10;0.10;;;24.60;49.50;;;;;;5054559;28;20283;-56
2023/10/31 07:54:06;;;;;;;0.00;0.00;;;24.50;49.40;;;;;;5054322;28;20196;-55
2023/10/31 07:56:40;;;;;;;0.00;0.00;;;24.60;49.70;;;;;;5055274;28;20219;-55
2023/10/31 07:59:10;;;;;;;0.00;0.00;;;24.50;49.50;;;;;;5054467;28;20215;-51
2023/10/31 08:01:41;;;;;;;0.08;0.08;;;24.50;49.50;;;;;;5054564;28;20197;-54
2023/10/31 08:04:24;;;;;;;0.00;0.00;;;24.50;49.50;;;;;;5054558;28;20200;-52
2023/10/31 08:06:55;;;;;;;0.10;0.10;;;24.40;49.50;;;;;;5054255;28;20196;-56
2023/10/31 08:09:25;;;;;;;0.00;0.00;;;24.50;49.50;;;;;;5053510;28;20261;-52
2023/10/31 08:11:58;;;;;;;0.00;0.00;;;24.50;49.50;;;;;;5053731;28;20199;-53
2023/10/31 08:14:28;;;;;;;0.10;0.10;;;24.40;49.40;;;;;;5035781;28;20196;-53
2023/10/31 08:16:59;;;;;;;0.00;0.00;;;24.40;49.40;;;;;;5040812;28;20231;-55
2023/10/31 08:19:30;;;;;;;0.00;0.00;;;24.40;49.50;;;;;;5053277;28;20755;-55
2023/10/31 08:22:00;;;;;;;0.10;0.10;;;24.40;49.50;;;;;;5053937;28;20207;-47
2023/10/31 08:25:07;;;;;;;0.00;0.00;;;24.30;49.50;;;;;;5051233;28;20192;-54
2023/10/31 08:27:40;;;;;;;0.00;0.00;;;24.30;49.50;;;;;;5064093;22;20597;-60
2023/10/31 08:30:11;;;;;;;0.00;0.00;;;24.30;49.40;;;;;;5052799;28;20198;-53
2023/10/31 08:32:42;;;;;;;0.00;0.00;;;24.30;49.50;;;;;;5053300;28;20599;-59
2023/10/31 08:37:56;;;;;;;0.00;0.00;;;24.20;49.70;;;;;;5043478;28;20366;-54
2023/10/31 08:40:27;;;;;;;0.00;0.00;;;24.20;49.60;;;;;;5052972;28;20560;-56
2023/10/31 08:43:00;;;;;;;0.00;0.00;;;24.20;49.70;;;;;;5053086;28;20195;-56
2023/10/31 08:45:31;;;;;;;0.10;0.10;;;24.20;49.70;;;;;;5052506;28;20282;-58
2023/10/31 08:48:22;;;;;;;0.10;0.10;;;24.20;49.70;;;;;;5052721;28;20219;-57
2023/10/31 08:50:53;;;;;;;0.10;0.10;;;24.10;49.70;;;;;;5055973;28;20893;-58
2023/10/31 08:53:24;;;;;;;0.00;0.00;;;24.10;49.70;;;;;;5048872;28;20207;-58
2023/10/31 08:55:56;;;;;;;0.00;0.00;;;24.10;49.70;;;;;;5052311;28;20199;-58
2023/10/31 08:58:28;;;;;;;0.00;0.00;;;24.00;49.70;;;;;;5052402;28;20250;-59
2023/10/31 09:00:59;;;;;;;0.10;0.10;;;24.00;49.70;;;;;;5053121;28;20206;-58
2023/10/31 09:03:30;;;;;;;0.00;0.00;;;24.00;49.70;;;;;;5051722;28;20558;-56
2023/10/31 09:06:00;;;;;;;0.00;0.00;;;24.00;49.80;;;;;;5052973;28;20199;-58
2023/10/31 09:08:31;;;;;;;0.00;0.00;;;24.00;49.70;;;;;;5033655;28;20212;-58
2023/10/31 09:11:34;;;;;;;0.10;0.10;;;24.00;49.80;;;;;;5033549;28;20651;-57
2023/10/31 09:14:07;;;;;;;0.00;0.00;;;23.90;49.70;;;;;;5034168;28;20207;-58
2023/10/31 09:16:38;;;;;;;0.03;0.03;;;23.90;49.70;;;;;;5052185;28;20222;-58
2023/10/31 09:19:08;;;;;;;0.00;0.00;;;23.90;49.70;;;;;;5038661;28;20216;-58
2023/10/31 09:21:39;;;;;;;0.00;0.00;;;23.80;49.70;;;;;;5032703;28;20188;-58
2023/10/31 09:24:28;;;;;;;0.00;0.00;;;23.80;49.70;;;;;;5032394;28;20682;-55
2023/10/31 09:26:58;;;;;;;0.00;0.00;;;23.80;49.70;;;;;;5059088;22;20222;-54
2023/10/31 09:29:31;;;;;;;0.00;0.00;;;23.80;49.80;;;;;;5071547;28;20222;-54
2023/10/31 09:32:01;;;;;;;0.00;0.00;;;23.80;49.80;;;;;;5071628;28;20627;-55
2023/10/31 09:34:32;;;;;;;0.00;0.00;;;23.70;49.70;;;;;;5072631;28;20203;-53
2023/10/31 09:37:03;;;;;;;0.00;0.00;;;23.70;49.80;;;;;;5071261;28;20218;-52
2023/10/31 09:39:33;;;;;;;0.10;0.10;;;23.70;49.80;;;;;;5075220;28;20214;-53
2023/10/31 09:42:04;;;;;;;0.00;0.00;;;23.60;49.80;;;;;;5066844;28;20203;-52
2023/10/31 09:44:37;;;;;;;0.05;0.05;;;23.70;49.80;;;;;;5051965;28;20625;-50
2023/10/31 09:47:09;;;;;;;0.00;0.00;;;23.70;49.90;;;;;;5058698;28;20195;-53
2023/10/31 09:49:40;;;;;;;0.10;0.10;;;23.60;49.80;;;;;;5071839;28;20195;-55
2023/10/31 09:52:10;;;;;;;0.00;0.00;;;23.60;49.80;;;;;;5071083;28;20187;-54
2023/10/31 09:54:43;;;;;;;0.00;0.00;;;23.60;49.80;;;;;;5071230;28;20569;-51
2023/10/31 09:57:15;;;;;;;0.08;0.08;;;23.60;49.80;;;;;;5065530;28;20256;-52
2023/10/31 09:59:47;;;;;;;0.10;0.10;;;23.50;49.70;;;;;;5051599;28;20207;-53
2023/10/31 10:02:18;;;;;;;0.00;0.00;;;23.50;49.80;;;;;;5056803;28;20202;-50
2023/10/31 10:04:50;;;;;;;0.10;0.10;;;23.50;49.80;;;;;;5071643;28;20205;-54
2023/10/31 10:07:21;;;;;;;0.10;0.10;;;23.50;49.80;;;;;;5071748;28;20596;-51
2023/10/31 10:09:51;;;;;;;0.10;0.10;;;23.50;49.80;;;;;;5071604;28;20198;-54
2023/10/31 10:12:23;;;;;;;0.00;0.00;;;23.40;49.70;;;;;;5064764;28;20192;-50
2023/10/31 10:14:56;;;;;;;0.00;0.00;;;23.40;49.70;;;;;;5051492;28;20211;-50
2023/10/31 10:17:27;;;;;;;0.00;0.00;;;23.40;49.80;;;;;;5061424;28;20218;-55
2023/10/31 10:20:10;;;;;;;0.10;0.10;;;23.40;49.80;;;;;;5051040;28;20232;-53
2023/10/31 10:22:44;;;;;;;0.10;0.10;;;23.40;49.80;;;;;;5054035;28;20685;-53
2023/10/31 10:25:18;;;;;;;0.10;0.10;;;23.30;49.80;;;;;;5071479;28;20190;-54
2023/10/31 10:27:49;;;;;;;0.10;0.10;;;23.30;49.90;;;;;;5077199;22;20629;-57
2023/10/31 10:30:22;;;;;;;0.00;0.00;;;23.30;49.80;;;;;;5052058;28;20570;-56
2023/10/31 10:32:54;;;;;;;0.10;0.10;;;23.30;49.90;;;;;;5051134;28;20593;-56
2023/10/31 10:35:24;;;;;;;0.03;0.03;;;23.30;49.90;;;;;;5050648;28;20195;-56
2023/10/31 10:37:57;;;;;;;0.00;0.00;;;23.30;49.90;;;;;;5041620;28;20315;-57
2023/10/31 10:40:28;;;;;;;0.10;0.10;;;23.20;49.80;;;;;;5031278;28;20192;-55
2023/10/31 10:43:02;;;;;;;0.10;0.10;;;23.20;49.80;;;;;;5031343;28;20195;-57
2023/10/31 10:45:35;;;;;;;0.10;0.10;;;23.20;49.80;;;;;;5043482;28;20287;-57
2023/10/31 10:48:13;;;;;;;0.00;0.00;;;23.20;49.80;;;;;;5046758;28;20223;-59
2023/10/31 10:50:48;;;;;;;0.10;0.10;;;23.10;49.80;;;;;;5051843;28;20211;-59
2023/10/31 10:53:25;;;;;;;0.10;0.10;;;23.10;49.80;;;;;;5051695;28;20198;-59
2023/10/31 10:55:58;;;;;;;0.03;0.03;;;23.10;49.80;;;;;;5051322;28;20613;-58
2023/10/31 10:58:36;;;;;;;0.00;0.00;;;23.10;49.80;;;;;;5051283;28;20306;-58
2023/10/31 11:01:10;;;;;;;0.10;0.10;;;23.10;49.80;;;;;;5051415;28;20282;-58
2023/10/31 11:03:41;;;;;;;0.00;0.00;;;23.00;49.80;;;;;;5051479;28;20202;-54
2023/10/31 11:06:13;;;;;;;0.10;0.10;;;23.00;49.80;;;;;;5051491;28;20575;-55
2023/10/31 11:08:45;;;;;;;0.10;0.10;;;23.00;49.90;;;;;;5050582;28;20219;-59
2023/10/31 11:11:17;;;;;;;0.00;0.00;;;23.00;49.90;;;;;;5051098;28;20215;-55
2023/10/31 11:13:48;;;;;;;0.10;0.10;;;23.00;49.90;;;;;;5050826;28;20246;-57
2023/10/31 11:16:27;;;;;;;0.10;0.10;;;23.00;49.90;;;;;;5050889;28;20199;-57
2023/10/31 11:18:59;;;;;;;0.10;0.10;;;22.90;49.90;;;;;;5051573;28;20223;-57
2023/10/31 11:21:32;;;;;;;0.10;0.10;;;22.90;49.90;;;;;;5051602;28;20195;-59
2023/10/31 11:24:03;;;;;;;0.08;0.08;;;22.90;49.90;;;;;;5051495;28;20195;-59
2023/10/31 11:26:34;;;;;;;0.10;0.10;;;22.90;49.90;;;;;;5052644;28;20199;-54
2023/10/31 11:29:08;;;;;;;0.10;0.10;;;22.90;49.90;;;;;;5051680;28;20718;-59
2023/10/31 11:31:42;;;;;;;0.10;0.10;;;22.90;49.90;;;;;;5050998;28;20252;-58
2023/10/31 11:34:12;;;;;;;0.10;0.10;;;22.90;49.90;;;;;;5050980;28;20278;-56
2023/10/31 11:36:43;;;;;;;0.00;0.00;;;22.80;49.80;;;;;;5050498;28;20204;-58
2023/10/31 11:39:18;;;;;;;0.05;0.05;;;22.80;49.80;;;;;;5050957;28;20325;-56
2023/10/31 11:41:52;;;;;;;0.00;0.00;;;22.80;49.90;;;;;;5051028;28;20567;-57
2023/10/31 11:44:28;;;;;;;0.10;0.10;;;22.80;49.80;;;;;;5051443;28;20199;-59
2023/10/31 11:47:03;;;;;;;0.08;0.08;;;22.70;49.70;;;;;;5053580;28;20206;-58
2023/10/31 11:49:52;;;;;;;0.00;0.00;;;22.70;49.80;;;;;;5050580;28;20695;-58
2023/10/31 11:52:23;;;;;;;0.10;0.10;;;22.70;49.90;;;;;;5050865;28;20270;-58
2023/10/31 11:54:54;;;;;;;0.00;0.00;;;22.70;49.90;;;;;;5051148;28;20269;-54
2023/10/31 11:57:31;;;;;;;0.10;0.10;;;22.70;49.90;;;;;;5050952;28;20786;-58
2023/10/31 12:00:02;;;;;;;0.10;0.10;;;22.60;49.90;;;;;;5050996;28;20659;-58
2023/10/31 12:02:34;;;;;;;0.10;0.10;;;22.60;49.90;;;;;;5050751;28;20207;-56
2023/10/31 12:05:12;;;;;;;0.10;0.10;;;22.60;49.90;;;;;;5050491;28;20709;-57
2023/10/31 12:07:46;;;;;;;0.10;0.10;;;22.60;49.90;;;;;;5050525;28;20302;-57
2023/10/31 12:10:24;;;;;;;0.10;0.10;;;22.60;49.90;;;;;;5054572;28;20199;-56
2023/10/31 12:12:55;;;;;;;0.00;0.00;;;22.60;49.90;;;;;;5034734;28;20231;-57
2023/10/31 12:15:25;;;;;;;0.10;0.10;;;22.50;49.90;;;;;;5034372;28;20196;-57
2023/10/31 12:18:01;;;;;;;0.00;0.00;;;22.50;49.80;;;;;;5048702;28;20227;-58
2023/10/31 12:20:32;;;;;;;0.10;0.10;;;22.50;49.80;;;;;;5054804;28;20686;-58
2023/10/31 12:23:06;;;;;;;0.10;0.10;;;22.50;49.80;;;;;;5054422;28;20310;-57
2023/10/31 12:25:47;;;;;;;0.10;0.10;;;22.40;49.80;;;;;;5054095;28;20195;-57
2023/10/31 12:28:21;;;;;;;0.10;0.10;;;22.50;49.80;;;;;;5070414;22;20231;-53
2023/10/31 12:30:54;;;;;;;0.00;0.00;;;22.40;49.80;;;;;;5053339;28;20196;-52
2023/10/31 12:33:28;;;;;;;0.00;0.00;;;22.40;49.80;;;;;;5054156;28;20200;-51
2023/10/31 12:36:02;;;;;;;0.00;0.00;;;22.40;49.90;;;;;;5053795;28;20633;-53
2023/10/31 12:38:33;;;;;;;0.00;0.00;;;22.40;49.90;;;;;;5053666;28;20257;-49
2023/10/31 12:41:03;;;;;;;0.10;0.10;;;22.40;50.00;;;;;;5053482;28;20195;-51
2023/10/31 12:43:34;;;;;;;0.00;0.00;;;22.40;49.90;;;;;;5053590;28;20199;-55
2023/10/31 12:46:29;;;;;;;0.00;0.00;;;22.30;49.90;;;;;;5053603;28;20206;-52
2023/10/31 12:49:01;;;;;;;0.00;0.00;;;22.30;49.90;;;;;;5053224;28;20242;-54
2023/10/31 12:51:32;;;;;;;0.00;0.00;;;22.30;49.90;;;;;;5053536;28;20287;-53
2023/10/31 12:54:03;;;;;;;0.10;0.10;;;22.30;49.90;;;;;;5053500;28;20566;-53
2023/10/31 12:56:43;;;;;;;0.10;0.10;;;22.30;49.90;;;;;;5062359;28;20235;-51
2023/10/31 12:59:14;;;;;;;0.10;0.10;;;22.30;49.90;;;;;;5073353;28;20600;-54
2023/10/31 13:01:47;;;;;;;0.05;0.05;;;22.30;49.90;;;;;;5073407;28;20203;-53
2023/10/31 13:04:28;;;;;;;0.00;0.00;;;22.20;49.80;;;;;;5072869;28;20206;-51
2023/10/31 13:07:01;;;;;;;0.10;0.10;;;22.20;49.80;;;;;;5073110;28;20191;-51
2023/10/31 13:09:35;;;;;;;0.10;0.10;;;22.20;49.80;;;;;;5073002;28;20214;-54
2023/10/31 13:12:07;;;;;;;0.10;0.10;;;22.20;49.80;;;;;;5073509;28;20233;-52
2023/10/31 13:14:39;;;;;;;0.03;0.03;;;22.20;49.80;;;;;;5073483;28;20230;-53
2023/10/31 13:17:09;;;;;;;0.10;0.10;;;22.20;49.80;;;;;;5065043;28;20210;-53